sensor_id;sensor_type;location;lat;lon;timestamp;pressure;altitude;pressure_sealevel;temperature;humidity
56630;BME280;42502;40.732;-74.254;2023-02-19T00:01:47;101733.75;;;19.27;32.96
56630;BME280;42502;40.732;-74.254;2023-02-19T00:03:50;101730.94;;;19.27;33.20
56630;BME280;42502;40.732;-74.254;2023-02-19T00:05:52;101742.16;;;19.27;32.81
56630;BME280;42502;40.732;-74.254;2023-02-19T00:07:53;101758.13;;;19.27;33.21
56630;BME280;42502;40.732;-74.254;2023-02-19T00:09:54;101752.84;;;19.25;33.00
56630;BME280;42502;40.732;-74.254;2023-02-19T00:11:54;101742.91;;;19.19;33.03
56630;BME280;42502;40.732;-74.254;2023-02-19T00:13:59;101753.19;;;19.24;33.09
56630;BME280;42502;40.732;-74.254;2023-02-19T00:16:05;101748.50;;;19.19;33.02
56630;BME280;42502;40.732;-74.254;2023-02-19T00:18:06;101743.44;;;19.21;33.01
56630;BME280;42502;40.732;-74.254;2023-02-19T00:20:07;101752.16;;;19.20;32.99
56630;BME280;42502;40.732;-74.254;2023-02-19T00:22:08;101747.81;;;19.13;33.11
56630;BME280;42502;40.732;-74.254;2023-02-19T00:24:10;101751.31;;;19.19;33.02
56630;BME280;42502;40.732;-74.254;2023-02-19T00:26:12;101748.81;;;19.17;33.05
56630;BME280;42502;40.732;-74.254;2023-02-19T00:28:13;101761.19;;;19.16;33.00
56630;BME280;42502;40.732;-74.254;2023-02-19T00:30:17;101756.00;;;19.10;33.21
56630;BME280;42502;40.732;-74.254;2023-02-19T00:32:18;101765.44;;;19.14;33.30
56630;BME280;42502;40.732;-74.254;2023-02-19T00:34:19;101765.44;;;19.14;33.09
56630;BME280;42502;40.732;-74.254;2023-02-19T00:36:20;101766.59;;;19.13;33.27
56630;BME280;42502;40.732;-74.254;2023-02-19T00:38:21;101766.09;;;19.11;33.16
56630;BME280;42502;40.732;-74.254;2023-02-19T00:40:22;101763.28;;;19.11;33.26
56630;BME280;42502;40.732;-74.254;2023-02-19T00:42:25;101756.78;;;19.02;33.40
56630;BME280;42502;40.732;-74.254;2023-02-19T00:44:26;101765.59;;;19.09;33.21
56630;BME280;42502;40.732;-74.254;2023-02-19T00:48:32;101770.66;;;19.07;33.30
56630;BME280;42502;40.732;-74.254;2023-02-19T00:50:33;101760.09;;;19.04;33.53
56630;BME280;42502;40.732;-74.254;2023-02-19T00:52:34;101760.09;;;19.04;33.33
56630;BME280;42502;40.732;-74.254;2023-02-19T00:54:35;101765.69;;;19.04;33.32
56630;BME280;42502;40.732;-74.254;2023-02-19T00:56:35;101773.59;;;19.02;33.47
56630;BME280;42502;40.732;-74.254;2023-02-19T00:58:39;101779.31;;;18.96;33.32
56630;BME280;42502;40.732;-74.254;2023-02-19T01:00:40;101787.91;;;19.00;33.22
56630;BME280;42502;40.732;-74.254;2023-02-19T01:02:41;101790.13;;;18.89;33.50
56630;BME280;42502;40.732;-74.254;2023-02-19T01:04:42;101798.63;;;18.98;33.31
56630;BME280;42502;40.732;-74.254;2023-02-19T01:06:43;101806.16;;;18.97;33.50
56630;BME280;42502;40.732;-74.254;2023-02-19T01:08:46;101804.00;;;18.94;33.26
56630;BME280;42502;40.732;-74.254;2023-02-19T01:10:49;101807.66;;;18.95;33.42
56630;BME280;42502;40.732;-74.254;2023-02-19T01:12:50;101804.13;;;18.89;33.50
56630;BME280;42502;40.732;-74.254;2023-02-19T01:14:53;101811.06;;;18.92;33.23
56630;BME280;42502;40.732;-74.254;2023-02-19T01:16:54;101815.84;;;18.91;33.27
56630;BME280;42502;40.732;-74.254;2023-02-19T01:18:56;101816.97;;;18.90;33.49
56630;BME280;42502;40.732;-74.254;2023-02-19T01:20:57;101811.69;;;18.89;33.27
56630;BME280;42502;40.732;-74.254;2023-02-19T01:22:58;101815.66;;;18.88;33.50
56630;BME280;42502;40.732;-74.254;2023-02-19T01:24:59;101818.75;;;18.86;33.63
56630;BME280;42502;40.732;-74.254;2023-02-19T01:27:00;101815.72;;;18.82;33.20
56630;BME280;42502;40.732;-74.254;2023-02-19T01:29:04;101807.44;;;18.77;33.27
56630;BME280;42502;40.732;-74.254;2023-02-19T01:31:06;101816.56;;;18.83;33.39
56630;BME280;42502;40.732;-74.254;2023-02-19T01:33:08;101813.22;;;18.81;33.35
56630;BME280;42502;40.732;-74.254;2023-02-19T01:35:09;101820.00;;;18.80;33.37
56630;BME280;42502;40.732;-74.254;2023-02-19T01:37:10;101823.09;;;18.78;33.08
56630;BME280;42502;40.732;-74.254;2023-02-19T01:39:11;101831.50;;;18.78;33.34
56630;BME280;42502;40.732;-74.254;2023-02-19T01:41:18;101826.22;;;18.77;33.35
56630;BME280;42502;40.732;-74.254;2023-02-19T01:43:20;101812.94;;;18.69;33.13
56630;BME280;42502;40.732;-74.254;2023-02-19T01:47:28;101812.94;;;18.69;33.25
56630;BME280;42502;40.732;-74.254;2023-02-19T01:49:31;101827.97;;;18.73;33.29
56630;BME280;42502;40.732;-74.254;2023-02-19T01:51:37;101828.28;;;18.71;32.95
56630;BME280;42502;40.732;-74.254;2023-02-19T01:53:44;101839.81;;;18.70;33.43
56630;BME280;42502;40.732;-74.254;2023-02-19T01:55:47;101843.72;;;18.69;33.34
56630;BME280;42502;40.732;-74.254;2023-02-19T01:57:51;101831.53;;;18.64;33.17
56630;BME280;42502;40.732;-74.254;2023-02-19T01:59:57;101829.66;;;18.60;33.34
56630;BME280;42502;40.732;-74.254;2023-02-19T02:02:05;101847.16;;;18.65;32.98
56630;BME280;42502;40.732;-74.254;2023-02-19T02:04:10;101846.34;;;18.65;33.30
56630;BME280;42502;40.732;-74.254;2023-02-19T02:06:22;101843.34;;;18.61;33.47
56630;BME280;42502;40.732;-74.254;2023-02-19T02:08:24;101852.56;;;18.62;33.37
56630;BME280;42502;40.732;-74.254;2023-02-19T02:10:44;101844.56;;;18.55;33.12
56630;BME280;42502;40.732;-74.254;2023-02-19T02:12:46;101851.53;;;18.58;33.18
56630;BME280;42502;40.732;-74.254;2023-02-19T02:14:49;101866.34;;;18.58;33.27
56630;BME280;42502;40.732;-74.254;2023-02-19T02:17:23;101875.34;;;18.55;33.12
56630;BME280;42502;40.732;-74.254;2023-02-19T02:22:17;101864.47;;;18.54;33.19
56630;BME280;42502;40.732;-74.254;2023-02-19T02:31:44;101865.72;;;18.47;33.24
56630;BME280;42502;40.732;-74.254;2023-02-19T02:34:06;101872.78;;;18.45;33.13
56630;BME280;42502;40.732;-74.254;2023-02-19T02:36:21;101879.81;;;18.42;33.28
56630;BME280;42502;40.732;-74.254;2023-02-19T02:38:27;101894.00;;;18.46;33.13
56630;BME280;42502;40.732;-74.254;2023-02-19T02:40:29;101884.28;;;18.43;33.01
56630;BME280;42502;40.732;-74.254;2023-02-19T02:42:32;101891.84;;;18.43;33.13
56630;BME280;42502;40.732;-74.254;2023-02-19T02:44:34;101893.31;;;18.40;32.99
56630;BME280;42502;40.732;-74.254;2023-02-19T02:46:39;101898.59;;;18.42;32.97
56630;BME280;42502;40.732;-74.254;2023-02-19T02:48:49;101896.09;;;18.40;33.19
56630;BME280;42502;40.732;-74.254;2023-02-19T02:53:24;101893.63;;;18.39;33.26
56630;BME280;42502;40.732;-74.254;2023-02-19T02:55:48;101889.47;;;18.36;33.15
56630;BME280;42502;40.732;-74.254;2023-02-19T02:57:51;101885.84;;;18.36;33.18
56630;BME280;42502;40.732;-74.254;2023-02-19T02:59:52;101885.31;;;18.34;32.85
56630;BME280;42502;40.732;-74.254;2023-02-19T03:04:20;101873.47;;;18.23;32.88
56630;BME280;42502;40.732;-74.254;2023-02-19T03:06:25;101884.78;;;18.32;32.80
56630;BME280;42502;40.732;-74.254;2023-02-19T03:08:37;101888.72;;;18.31;33.18
56630;BME280;42502;40.732;-74.254;2023-02-19T03:10:47;101887.06;;;18.29;33.17
56630;BME280;42502;40.732;-74.254;2023-02-19T03:12:52;101882.06;;;18.26;32.90
56630;BME280;42502;40.732;-74.254;2023-02-19T03:15:15;101885.72;;;18.27;33.16
56630;BME280;42502;40.732;-74.254;2023-02-19T03:17:38;101876.78;;;18.25;32.95
56630;BME280;42502;40.732;-74.254;2023-02-19T03:20:03;101874.91;;;18.20;32.74
56630;BME280;42502;40.732;-74.254;2023-02-19T03:22:16;101877.09;;;18.23;33.21
56630;BME280;42502;40.732;-74.254;2023-02-19T03:24:28;101872.66;;;18.22;32.77
56630;BME280;42502;40.732;-74.254;2023-02-19T03:26:49;101872.97;;;18.21;32.75
56630;BME280;42502;40.732;-74.254;2023-02-19T03:28:54;101871.63;;;18.18;32.81
56630;BME280;42502;40.732;-74.254;2023-02-19T03:31:17;101874.91;;;18.20;32.83
56630;BME280;42502;40.732;-74.254;2023-02-19T03:33:22;101874.41;;;18.18;32.72
56630;BME280;42502;40.732;-74.254;2023-02-19T03:35:49;101864.34;;;18.17;32.99
56630;BME280;42502;40.732;-74.254;2023-02-19T03:38:14;101855.97;;;18.17;32.84
56630;BME280;42502;40.732;-74.254;2023-02-19T03:40:18;101852.66;;;18.15;32.83
56630;BME280;42502;40.732;-74.254;2023-02-19T03:44:54;101837.13;;;18.09;32.72
56630;BME280;42502;40.732;-74.254;2023-02-19T03:47:09;101846.84;;;18.11;32.58
56630;BME280;42502;40.732;-74.254;2023-02-19T03:49:28;101831.63;;;18.04;32.65
56630;BME280;42502;40.732;-74.254;2023-02-19T03:51:44;101832.25;;;18.01;32.93
56630;BME280;42502;40.732;-74.254;2023-02-19T03:56:27;101848.59;;;18.07;32.69
56630;BME280;42502;40.732;-74.254;2023-02-19T04:01:06;101843.13;;;18.02;32.59
56630;BME280;42502;40.732;-74.254;2023-02-19T04:03:23;101853.16;;;18.03;32.87
56630;BME280;42502;40.732;-74.254;2023-02-19T04:05:29;101855.13;;;18.03;32.72
56630;BME280;42502;40.732;-74.254;2023-02-19T04:07:37;101852.34;;;18.03;32.70
56630;BME280;42502;40.732;-74.254;2023-02-19T04:09:49;101855.44;;;18.01;32.44
56630;BME280;42502;40.732;-74.254;2023-02-19T04:11:55;101855.44;;;18.01;32.28
56630;BME280;42502;40.732;-74.254;2023-02-19T04:16:20;101858.53;;;18.00;32.50
56630;BME280;42502;40.732;-74.254;2023-02-19T04:18:26;101846.59;;;17.94;32.37
56630;BME280;42502;40.732;-74.254;2023-02-19T04:20:31;101868.66;;;17.96;32.71
56630;BME280;42502;40.732;-74.254;2023-02-19T04:22:36;101857.28;;;17.92;32.48
56630;BME280;42502;40.732;-74.254;2023-02-19T04:24:49;101851.06;;;17.95;32.77
56630;BME280;42502;40.732;-74.254;2023-02-19T04:26:52;101856.66;;;17.95;32.59
56630;BME280;42502;40.732;-74.254;2023-02-19T04:28:53;101844.75;;;17.89;32.33
56630;BME280;42502;40.732;-74.254;2023-02-19T04:30:54;101852.19;;;17.94;32.23
56630;BME280;42502;40.732;-74.254;2023-02-19T04:32:55;101844.13;;;17.92;32.56
56630;BME280;42502;40.732;-74.254;2023-02-19T04:34:57;101839.72;;;17.86;32.43
56630;BME280;42502;40.732;-74.254;2023-02-19T04:36:58;101848.03;;;17.91;32.48
56630;BME280;42502;40.732;-74.254;2023-02-19T04:39:02;101853.63;;;17.91;32.53
56630;BME280;42502;40.732;-74.254;2023-02-19T04:41:03;101841.16;;;17.84;32.43
56630;BME280;42502;40.732;-74.254;2023-02-19T04:43:03;101860.97;;;17.87;32.05
56630;BME280;42502;40.732;-74.254;2023-02-19T04:45:05;101860.97;;;17.87;32.41
56630;BME280;42502;40.732;-74.254;2023-02-19T04:47:06;101849.66;;;17.79;32.21
56630;BME280;42502;40.732;-74.254;2023-02-19T04:49:06;101852.03;;;17.85;32.24
56630;BME280;42502;40.732;-74.254;2023-02-19T04:51:08;101850.47;;;17.79;32.16
56630;BME280;42502;40.732;-74.254;2023-02-19T04:53:15;101853.28;;;17.79;32.39
56630;BME280;42502;40.732;-74.254;2023-02-19T04:55:16;101856.00;;;17.84;32.39
56630;BME280;42502;40.732;-74.254;2023-02-19T04:57:17;101856.31;;;17.83;32.38
56630;BME280;42502;40.732;-74.254;2023-02-19T04:59:18;101835.69;;;17.79;32.33
56630;BME280;42502;40.732;-74.254;2023-02-19T05:01:19;101845.19;;;17.77;32.39
56630;BME280;42502;40.732;-74.254;2023-02-19T05:03:19;101839.59;;;17.77;32.25
56630;BME280;42502;40.732;-74.254;2023-02-19T05:05:23;101831.13;;;17.69;32.14
56630;BME280;42502;40.732;-74.254;2023-02-19T05:07:24;101845.81;;;17.74;32.08
56630;BME280;42502;40.732;-74.254;2023-02-19T05:09:25;101850.78;;;17.77;32.31
56630;BME280;42502;40.732;-74.254;2023-02-19T05:11:26;101847.16;;;17.77;32.40
56630;BME280;42502;40.732;-74.254;2023-02-19T05:13:27;101834.72;;;17.69;32.39
56630;BME280;42502;40.732;-74.254;2023-02-19T05:15:28;101853.06;;;17.75;32.25
56630;BME280;42502;40.732;-74.254;2023-02-19T05:17:32;101851.69;;;17.73;32.25
56630;BME280;42502;40.732;-74.254;2023-02-19T05:19:33;101842.88;;;17.66;32.15
56630;BME280;42502;40.732;-74.254;2023-02-19T05:21:34;101846.22;;;17.68;32.20
56630;BME280;42502;40.732;-74.254;2023-02-19T05:23:38;101851.19;;;17.71;32.45
56630;BME280;42502;40.732;-74.254;2023-02-19T05:25:42;101842.06;;;17.65;32.16
56630;BME280;42502;40.732;-74.254;2023-02-19T05:27:43;101841.25;;;17.65;32.15
56630;BME280;42502;40.732;-74.254;2023-02-19T05:29:44;101839.50;;;17.69;32.12
56630;BME280;42502;40.732;-74.254;2023-02-19T05:31:45;101846.72;;;17.70;32.17
56630;BME280;42502;40.732;-74.254;2023-02-19T05:33:46;101837.00;;;17.67;32.14
56630;BME280;42502;40.732;-74.254;2023-02-19T05:35:54;101817.38;;;17.53;32.26
56630;BME280;42502;40.732;-74.254;2023-02-19T05:37:55;101836.78;;;17.64;32.02
56630;BME280;42502;40.732;-74.254;2023-02-19T05:39:56;101837.91;;;17.63;32.13
56630;BME280;42502;40.732;-74.254;2023-02-19T05:41:57;101836.78;;;17.64;32.19
56630;BME280;42502;40.732;-74.254;2023-02-19T05:43:57;101849.94;;;17.63;32.06
56630;BME280;42502;40.732;-74.254;2023-02-19T05:45:58;101845.25;;;17.58;32.16
56630;BME280;42502;40.732;-74.254;2023-02-19T05:48:00;101850.22;;;17.62;32.31
56630;BME280;42502;40.732;-74.254;2023-02-19T05:50:01;101845.88;;;17.55;31.97
56630;BME280;42502;40.732;-74.254;2023-02-19T05:52:01;101850.59;;;17.55;31.90
56630;BME280;42502;40.732;-74.254;2023-02-19T05:54:02;101846.19;;;17.54;32.06
56630;BME280;42502;40.732;-74.254;2023-02-19T05:56:04;101857.25;;;17.59;32.22
56630;BME280;42502;40.732;-74.254;2023-02-19T05:58:05;101842.78;;;17.57;32.13
56630;BME280;42502;40.732;-74.254;2023-02-19T06:00:07;101848.13;;;17.53;32.01
56630;BME280;42502;40.732;-74.254;2023-02-19T06:02:11;101843.06;;;17.55;32.11
56630;BME280;42502;40.732;-74.254;2023-02-19T06:04:12;101848.97;;;17.54;32.06
56630;BME280;42502;40.732;-74.254;2023-02-19T06:06:16;101857.34;;;17.54;31.94
56630;BME280;42502;40.732;-74.254;2023-02-19T06:08:17;101854.00;;;17.52;32.17
56630;BME280;42502;40.732;-74.254;2023-02-19T06:10:18;101857.41;;;17.49;31.95
56630;BME280;42502;40.732;-74.254;2023-02-19T06:12:19;101858.03;;;17.46;31.96
56630;BME280;42502;40.732;-74.254;2023-02-19T06:14:23;101859.47;;;17.43;32.08
56630;BME280;42502;40.732;-74.254;2023-02-19T06:16:24;101861.72;;;17.41;31.88
56630;BME280;42502;40.732;-74.254;2023-02-19T06:18:25;101871.47;;;17.44;31.99
56630;BME280;42502;40.732;-74.254;2023-02-19T06:20:26;101861.97;;;17.45;31.92
56630;BME280;42502;40.732;-74.254;2023-02-19T06:22:27;101874.78;;;17.46;31.71
56630;BME280;42502;40.732;-74.254;2023-02-19T06:24:28;101875.63;;;17.46;31.91
56630;BME280;42502;40.732;-74.254;2023-02-19T06:26:29;101863.41;;;17.42;31.96
56630;BME280;42502;40.732;-74.254;2023-02-19T06:28:30;101856.16;;;17.41;31.94
56630;BME280;42502;40.732;-74.254;2023-02-19T06:30:33;101863.41;;;17.42;31.91
56630;BME280;42502;40.732;-74.254;2023-02-19T06:32:34;101857.50;;;17.44;31.94
56630;BME280;42502;40.732;-74.254;2023-02-19T06:34:35;101857.81;;;17.42;31.91
56630;BME280;42502;40.732;-74.254;2023-02-19T06:36:38;101848.06;;;17.39;31.95
56630;BME280;42502;40.732;-74.254;2023-02-19T06:38:38;101839.78;;;17.34;31.91
56630;BME280;42502;40.732;-74.254;2023-02-19T06:40:39;101832.47;;;17.38;31.79
56630;BME280;42502;40.732;-74.254;2023-02-19T06:42:40;101831.63;;;17.38;31.68
56630;BME280;42502;40.732;-74.254;2023-02-19T06:44:41;101816.59;;;17.34;31.74
56630;BME280;42502;40.732;-74.254;2023-02-19T06:46:42;101820.75;;;17.36;31.82
56630;BME280;42502;40.732;-74.254;2023-02-19T06:48:44;101818.25;;;17.35;31.77
56630;BME280;42502;40.732;-74.254;2023-02-19T06:50:48;101827.75;;;17.34;31.96
56630;BME280;42502;40.732;-74.254;2023-02-19T06:52:49;101840.59;;;17.35;31.85
56630;BME280;42502;40.732;-74.254;2023-02-19T06:54:50;101833.66;;;17.32;31.94
56630;BME280;42502;40.732;-74.254;2023-02-19T06:56:51;101834.50;;;17.33;31.58
56630;BME280;42502;40.732;-74.254;2023-02-19T06:58:54;101839.53;;;17.31;31.69
56630;BME280;42502;40.732;-74.254;2023-02-19T07:00:55;101843.47;;;17.30;31.92
56630;BME280;42502;40.732;-74.254;2023-02-19T07:02:59;101829.59;;;17.25;31.88
56630;BME280;42502;40.732;-74.254;2023-02-19T07:04:59;101836.22;;;17.29;31.99
56630;BME280;42502;40.732;-74.254;2023-02-19T07:07:04;101835.16;;;17.25;31.66
56630;BME280;42502;40.732;-74.254;2023-02-19T07:09:06;101838.81;;;17.25;31.95
56630;BME280;42502;40.732;-74.254;2023-02-19T07:11:07;101829.06;;;17.22;31.66
56630;BME280;42502;40.732;-74.254;2023-02-19T07:13:08;101828.69;;;17.10;31.93
56630;BME280;42502;40.732;-74.254;2023-02-19T07:15:09;101857.50;;;17.25;31.63
56630;BME280;42502;40.732;-74.254;2023-02-19T07:17:12;101854.50;;;17.21;31.82
56630;BME280;42502;40.732;-74.254;2023-02-19T07:19:14;101857.81;;;17.23;31.82
56630;BME280;42502;40.732;-74.254;2023-02-19T07:21:16;101854.28;;;17.17;31.73
56630;BME280;42502;40.732;-74.254;2023-02-19T07:23:17;101860.91;;;17.21;31.54
56630;BME280;42502;40.732;-74.254;2023-02-19T07:25:18;101845.66;;;17.14;31.79
56630;BME280;42502;40.732;-74.254;2023-02-19T07:27:19;101876.03;;;17.20;31.65
56630;BME280;42502;40.732;-74.254;2023-02-19T07:29:20;101862.66;;;17.17;31.89
56630;BME280;42502;40.732;-74.254;2023-02-19T07:31:22;101852.41;;;17.13;31.92
56630;BME280;42502;40.732;-74.254;2023-02-19T07:33:23;101860.69;;;17.18;31.99
56630;BME280;42502;40.732;-74.254;2023-02-19T07:35:24;101846.53;;;17.14;31.52
56630;BME280;42502;40.732;-74.254;2023-02-19T07:37:25;101855.41;;;17.16;31.82
56630;BME280;42502;40.732;-74.254;2023-02-19T07:39:26;101848.16;;;17.15;31.80
56630;BME280;42502;40.732;-74.254;2023-02-19T07:41:30;101846.28;;;17.11;31.56
56630;BME280;42502;40.732;-74.254;2023-02-19T07:43:35;101842.88;;;17.14;31.63
56630;BME280;42502;40.732;-74.254;2023-02-19T07:45:36;101842.38;;;17.12;31.70
56630;BME280;42502;40.732;-74.254;2023-02-19T07:47:37;101834.81;;;17.12;31.79
56630;BME280;42502;40.732;-74.254;2023-02-19T07:49:38;101839.56;;;17.12;31.54
56630;BME280;42502;40.732;-74.254;2023-02-19T07:51:39;101843.47;;;17.11;31.71
56630;BME280;42502;40.732;-74.254;2023-02-19T07:53:40;101829.66;;;17.00;31.66
56630;BME280;42502;40.732;-74.254;2023-02-19T07:55:47;101830.97;;;17.08;31.79
56630;BME280;42502;40.732;-74.254;2023-02-19T07:57:54;101827.34;;;17.08;31.73
56630;BME280;42502;40.732;-74.254;2023-02-19T07:59:57;101813.69;;;17.06;31.81
56630;BME280;42502;40.732;-74.254;2023-02-19T08:01:58;101806.50;;;17.00;31.69
56630;BME280;42502;40.732;-74.254;2023-02-19T08:04:17;101811.19;;;17.04;31.76
56630;BME280;42502;40.732;-74.254;2023-02-19T08:06:18;101815.72;;;17.00;31.58
56630;BME280;42502;40.732;-74.254;2023-02-19T08:08:19;101817.06;;;17.03;31.53
56630;BME280;42502;40.732;-74.254;2023-02-19T08:10:20;101816.25;;;17.02;31.73
56630;BME280;42502;40.732;-74.254;2023-02-19T08:12:39;101831.34;;;17.01;31.42
56630;BME280;42502;40.732;-74.254;2023-02-19T08:15:01;101809.91;;;16.97;31.61
56630;BME280;42502;40.732;-74.254;2023-02-19T08:17:02;101829.97;;;16.99;31.82
56630;BME280;42502;40.732;-74.254;2023-02-19T08:19:03;101813.91;;;16.91;31.48
56630;BME280;42502;40.732;-74.254;2023-02-19T08:21:04;101837.81;;;16.97;31.75
56630;BME280;42502;40.732;-74.254;2023-02-19T08:23:06;101823.88;;;16.97;31.69
56630;BME280;42502;40.732;-74.254;2023-02-19T08:25:07;101812.69;;;16.97;31.67
56630;BME280;42502;40.732;-74.254;2023-02-19T08:27:08;101832.53;;;16.95;31.71
56630;BME280;42502;40.732;-74.254;2023-02-19T08:29:09;101832.31;;;16.92;31.55
56630;BME280;42502;40.732;-74.254;2023-02-19T08:31:10;101836.25;;;16.91;31.38
56630;BME280;42502;40.732;-74.254;2023-02-19T08:33:13;101833.97;;;16.93;31.92
56630;BME280;42502;40.732;-74.254;2023-02-19T08:35:17;101841.00;;;16.90;31.74
56630;BME280;42502;40.732;-74.254;2023-02-19T08:37:21;101843.50;;;16.92;31.42
56630;BME280;42502;40.732;-74.254;2023-02-19T08:39:21;101854.66;;;16.92;31.87
56630;BME280;42502;40.732;-74.254;2023-02-19T08:41:22;101858.56;;;16.91;31.49
56630;BME280;42502;40.732;-74.254;2023-02-19T08:43:23;101863.34;;;16.90;31.81
56630;BME280;42502;40.732;-74.254;2023-02-19T08:45:24;101859.16;;;16.87;31.57
56630;BME280;42502;40.732;-74.254;2023-02-19T08:47:27;101851.63;;;16.88;31.57
56630;BME280;42502;40.732;-74.254;2023-02-19T08:49:28;101841.94;;;16.80;31.67
56630;BME280;42502;40.732;-74.254;2023-02-19T08:51:29;101843.00;;;16.84;31.47
56630;BME280;42502;40.732;-74.254;2023-02-19T08:53:31;101850.25;;;16.85;31.32
56630;BME280;42502;40.732;-74.254;2023-02-19T08:55:32;101822.38;;;16.80;31.41
56630;BME280;42502;40.732;-74.254;2023-02-19T08:57:36;101816.28;;;16.78;31.77
56630;BME280;42502;40.732;-74.254;2023-02-19T08:59:37;101808.81;;;16.74;31.51
56630;BME280;42502;40.732;-74.254;2023-02-19T09:01:38;101815.38;;;16.83;31.64
56630;BME280;42502;40.732;-74.254;2023-02-19T09:03:39;101818.47;;;16.81;31.38
56630;BME280;42502;40.732;-74.254;2023-02-19T09:05:42;101831.63;;;16.81;31.68
56630;BME280;42502;40.732;-74.254;2023-02-19T09:07:49;101835.53;;;16.80;31.55
56630;BME280;42502;40.732;-74.254;2023-02-19T09:09:49;101829.94;;;16.80;31.69
56630;BME280;42502;40.732;-74.254;2023-02-19T09:11:50;101819.69;;;16.75;31.68
56630;BME280;42502;40.732;-74.254;2023-02-19T09:13:51;101810.50;;;16.75;31.38
56630;BME280;42502;40.732;-74.254;2023-02-19T09:15:54;101810.50;;;16.75;31.72
56630;BME280;42502;40.732;-74.254;2023-02-19T09:17:57;101821.34;;;16.76;31.60
56630;BME280;42502;40.732;-74.254;2023-02-19T09:19:57;101820.81;;;16.74;31.64
56630;BME280;42502;40.732;-74.254;2023-02-19T09:22:03;101811.06;;;16.72;31.68
56630;BME280;42502;40.732;-74.254;2023-02-19T09:24:04;101806.09;;;16.68;31.61
56630;BME280;42502;40.732;-74.254;2023-02-19T09:26:05;101808.56;;;16.70;31.66
56630;BME280;42502;40.732;-74.254;2023-02-19T09:28:09;101802.47;;;16.68;31.55
56630;BME280;42502;40.732;-74.254;2023-02-19T09:30:10;101824.50;;;16.69;31.51
56630;BME280;42502;40.732;-74.254;2023-02-19T09:32:11;101824.28;;;16.66;31.62
56630;BME280;42502;40.732;-74.254;2023-02-19T09:34:12;101832.09;;;16.64;31.43
56630;BME280;42502;40.732;-74.254;2023-02-19T09:36:14;101828.78;;;16.62;31.58
56630;BME280;42502;40.732;-74.254;2023-02-19T09:38:15;101845.16;;;16.68;31.54
56630;BME280;42502;40.732;-74.254;2023-02-19T09:40:16;101854.66;;;16.67;31.68
56630;BME280;42502;40.732;-74.254;2023-02-19T09:42:23;101862.50;;;16.65;31.57
56630;BME280;42502;40.732;-74.254;2023-02-19T09:44:35;101868.91;;;16.66;31.70
56630;BME280;42502;40.732;-74.254;2023-02-19T09:46:42;101853.28;;;16.65;31.62
56630;BME280;42502;40.732;-74.254;2023-02-19T09:48:44;101822.09;;;16.63;31.49
56630;BME280;42502;40.732;-74.254;2023-02-19T09:50:47;101829.31;;;16.64;31.75
56630;BME280;42502;40.732;-74.254;2023-02-19T09:52:54;101847.19;;;16.63;31.75
56630;BME280;42502;40.732;-74.254;2023-02-19T09:55:03;101835.19;;;16.62;31.80
56630;BME280;42502;40.732;-74.254;2023-02-19T09:57:05;101839.94;;;16.62;31.72
56630;BME280;42502;40.732;-74.254;2023-02-19T09:59:22;101850.03;;;16.58;31.75
56630;BME280;42502;40.732;-74.254;2023-02-19T10:01:28;101843.03;;;16.60;31.56
56630;BME280;42502;40.732;-74.254;2023-02-19T10:03:37;101846.94;;;16.59;31.58
56630;BME280;42502;40.732;-74.254;2023-02-19T10:05:40;101848.91;;;16.59;31.45
56630;BME280;42502;40.732;-74.254;2023-02-19T10:07:49;101847.25;;;16.58;31.57
56630;BME280;42502;40.732;-74.254;2023-02-19T10:12:24;101863.47;;;16.56;31.42
56630;BME280;42502;40.732;-74.254;2023-02-19T10:14:39;101860.97;;;16.54;31.59
56630;BME280;42502;40.732;-74.254;2023-02-19T10:16:42;101856.22;;;16.55;31.36
56630;BME280;42502;40.732;-74.254;2023-02-19T10:18:45;101855.50;;;16.44;31.59
56630;BME280;42502;40.732;-74.254;2023-02-19T10:20:51;101866.03;;;16.52;31.72
56630;BME280;42502;40.732;-74.254;2023-02-19T10:23:03;101874.69;;;16.50;31.92
56630;BME280;42502;40.732;-74.254;2023-02-19T10:25:05;101859.88;;;16.50;31.67
56630;BME280;42502;40.732;-74.254;2023-02-19T10:27:12;101859.06;;;16.49;31.77
56630;BME280;42502;40.732;-74.254;2023-02-19T10:29:13;101852.41;;;16.45;31.54
56630;BME280;42502;40.732;-74.254;2023-02-19T10:31:22;101840.44;;;16.45;31.51
56630;BME280;42502;40.732;-74.254;2023-02-19T10:33:24;101848.50;;;16.46;31.43
56630;BME280;42502;40.732;-74.254;2023-02-19T10:35:25;101851.91;;;16.43;31.48
56630;BME280;42502;40.732;-74.254;2023-02-19T10:37:26;101845.50;;;16.43;31.40
56630;BME280;42502;40.732;-74.254;2023-02-19T10:39:35;101860.78;;;16.45;31.40
56630;BME280;42502;40.732;-74.254;2023-02-19T10:41:43;101855.50;;;16.44;31.74
56630;BME280;42502;40.732;-74.254;2023-02-19T10:45:54;101850.28;;;16.37;31.36
56630;BME280;42502;40.732;-74.254;2023-02-19T10:47:55;101853.59;;;16.39;31.54
56630;BME280;42502;40.732;-74.254;2023-02-19T10:49:58;101841.84;;;16.42;31.59
56630;BME280;42502;40.732;-74.254;2023-02-19T10:52:33;101835.75;;;16.40;31.60
56630;BME280;42502;40.732;-74.254;2023-02-19T10:54:36;101839.66;;;16.39;31.68
56630;BME280;42502;40.732;-74.254;2023-02-19T10:56:37;101832.41;;;16.38;31.78
56630;BME280;42502;40.732;-74.254;2023-02-19T10:58:41;101834.91;;;16.40;31.64
56630;BME280;42502;40.732;-74.254;2023-02-19T11:00:44;101816.34;;;16.30;31.31
56630;BME280;42502;40.732;-74.254;2023-02-19T11:02:45;101819.91;;;16.36;31.72
56630;BME280;42502;40.732;-74.254;2023-02-19T11:05:02;101826.31;;;16.36;31.70
56630;BME280;42502;40.732;-74.254;2023-02-19T11:07:12;101823.00;;;16.34;31.63